Station: Wiluna Airport  

  Atmospheric Gas Attenuation - ITU Rec 676-11   ----------------- dB/100km -----------------
Date Time Temp RH % AH g/m3 Dew Point Wind Direction Speed kph Gust kph Barometer mB Rainfall Since 9am 24GHz 47GHz 76GHz 122GHz 134GHz 241GHz
08/05 09:20 16.1 51 6.99 6 24 28 1027.9 0 16.1 23.3 33.2 86.6 76.5 261.9
08/05 09:10 16 52 7.08 6.2 22 26 1027.9 0 16.3 23.5 33.5 87.6 77.7 266.1
08/05 09:00 15.1 53 6.84 5.6 26 35 1027.7 0 15.8 23.3 33.0 86.1 75.6 258.6
08/05 08:50 15.1 54 6.97 5.9 28 30 1027.7 0 16.1 23.5 33.5 87.4 77.2 264.2
08/05 08:40 14.8 55 6.97 5.9 30 35 1027.7 0 16.1 23.6 33.6 87.8 77.5 265.2
08/05 08:30 14.6 56 7.01 5.9 24 35 1027.9 0 16.2 23.7 33.9 88.4 78.2 267.7
08/05 08:20 14.4 58 7.17 6.3 24 32 1027.7 0 16.5 24.0 34.5 90.2 80.4 275.3
08/05 08:10 13.8 59 7.03 5.9 24 30 1027.7 0 16.2 23.9 34.3 89.5 79.2 271.2
08/05 08:00 13.2 62 7.12 6.1 17 28 1027.6 0 16.5 24.2 34.9 91.1 81.0 277.2
08/05 07:50 11.8 66 6.95 5.7 15 17 1027.6 0 16.1 24.4 34.8 90.9 80.2 274.4
08/05 07:40 10.9 68 6.77 5.2 13 15 1027.6 0 15.8 24.3 34.5 90.0 78.8 269.4
08/05 07:30 10.4 70 6.75 5.2 13 15 1027.5 0 15.8 24.4 34.6 90.4 79.1 270.1
08/05 07:20 9.9 71 6.63 4.9 13 13 1027.4 0 15.5 24.4 34.4 89.7 78.0 266.3
08/05 07:10 9.3 73 6.56 4.7 13 15 1027.3 0 15.4 24.4 34.3 89.6 77.7 265.1
08/05 07:00 8.6 74 6.36 4.2 11 13 1027.2 0 15.0 24.3 33.8 88.3 75.7 258.2
08/05 06:50 8.5 74 6.32 4.1 9 11 1027.1 0 14.9 24.2 33.7 87.9 75.3 256.7
08/05 06:40 8.4 74 6.28 4 11 13 1027 0 14.9 24.2 33.6 87.6 74.9 255.1
08/05 06:30 8.4 74 6.28 4 9 11 1026.9 0 14.9 24.2 33.6 87.6 74.9 255.1
08/05 06:20 8.4 74 6.28 4 9 11 1026.9 0 14.9 24.2 33.6 87.6 74.9 255.1
08/05 06:10 8.3 74 6.24 3.9 9 9 1026.9 0 14.8 24.1 33.5 87.3 74.4 253.6
08/05 06:00 8.4 74 6.28 4 9 11 1026.8 0 14.9 24.2 33.6 87.6 74.8 255.1
08/05 05:50 8.5 73 6.24 3.9 9 11 1026.8 0 14.8 24.1 33.4 87.1 74.2 252.9
08/05 05:40 8.7 73 6.32 4.1 9 11 1026.8 0 14.9 24.2 33.6 87.7 75.1 255.9
08/05 05:30 8.9 72 6.31 4.1 11 13 1026.8 0 14.9 24.1 33.5 87.4 74.8 254.8
08/05 05:20 9.1 72 6.39 4.3 11 13 1026.7 0 15.1 24.2 33.7 88.0 75.6 257.8
08/05 05:10 9.1 72 6.39 4.3 13 13 1026.6 0 15.1 24.2 33.7 88.0 75.6 257.8
08/05 05:00 9 71 6.26 4 9 11 1026.6 0 14.8 24.0 33.3 86.7 74.0 252.2
08/05 04:50 9.1 70 6.21 3.9 9 11 1026.6 0 14.7 23.9 33.0 86.1 73.3 249.6
08/05 04:40 9.3 70 6.29 4.1 11 11 1026.6 0 14.8 23.9 33.2 86.7 74.1 252.6
08/05 04:30 9.4 69 6.24 4 11 13 1026.5 0 14.7 23.8 33.0 86.1 73.4 250.0
08/05 04:20 9.6 68 6.23 4 13 13 1026.3 0 14.7 23.8 32.9 85.7 73.0 248.9
08/05 04:10 9.7 68 6.27 4.1 13 15 1026.3 0 14.8 23.8 33.0 86.0 73.5 250.4
08/05 04:00 9.8 67 6.22 4 13 17 1026.3 0 14.7 23.7 32.8 85.4 72.7 247.8
08/05 03:50 9.9 67 6.26 4.1 13 15 1026.3 0 14.8 23.7 32.9 85.7 73.1 249.3
08/05 03:40 10.2 66 6.28 4.1 13 15 1026.3 0 14.8 23.7 32.8 85.6 73.1 249.2
08/05 03:30 10.5 66 6.4 4.4 13 17 1026.4 0 15.0 23.8 33.2 86.5 74.4 253.7
08/05 03:20 10.5 66 6.4 4.4 13 15 1026.4 0 15.0 23.8 33.2 86.5 74.4 253.7
08/05 03:10 10.6 65 6.35 4.3 13 13 1026.4 0 14.9 23.7 32.9 85.9 73.6 251.2
08/05 03:00 10.8 64 6.33 4.3 15 17 1026.4 0 14.9 23.6 32.8 85.5 73.2 249.6
08/05 02:50 11.1 63 6.35 4.3 15 17 1026.4 0 14.9 23.6 32.7 85.4 73.2 249.6
08/05 02:40 11.4 62 6.36 4.4 15 15 1026.5 0 14.9 23.5 32.7 85.1 73.0 249.1
08/05 02:30 11.6 61 6.34 4.3 13 15 1026.6 0 14.9 23.4 32.5 84.7 72.6 247.6
08/05 02:20 12.1 60 6.44 4.6 13 13 1026.6 0 15.1 23.4 32.7 85.2 73.4 250.5
08/05 02:10 12.6 58 6.42 4.6 13 13 1026.6 0 15.0 23.3 32.4 84.5 72.7 248.0
08/05 02:00 13.4 56 6.51 4.8 17 20 1026.7 0 15.2 23.2 32.4 84.6 73.1 249.5
08/05 01:50 13.6 55 6.47 4.7 17 20 1026.6 0 15.1 23.1 32.2 83.9 72.4 247.1
08/05 01:40 13.8 55 6.55 4.9 17 19 1026.6 0 15.2 23.2 32.4 84.5 73.2 250.0
08/05 01:30 14 54 6.51 4.9 17 22 1026.7 0 15.1 23.1 32.2 83.9 72.5 247.7
08/05 01:20 14.2 54 6.59 5 17 19 1026.7 0 15.3 23.1 32.4 84.5 73.3 250.5
08/05 01:10 14.3 53 6.51 4.9 17 20 1026.6 0 15.1 23.0 32.1 83.6 72.2 246.7
08/05 01:00 14.4 53 6.55 5 20 28 1026.6 0 15.2 23.0 32.2 83.9 72.6 248.1
08/05 00:50 14.6 53 6.63 5.1 22 30 1026.5 0 15.4 23.1 32.4 84.5 73.4 250.9
08/05 00:40 14.7 52 6.55 5 26 30 1026.5 0 15.2 22.9 32.1 83.6 72.4 247.2
08/05 00:30 14.8 52 6.59 5.1 24 33 1026.5 0 15.3 23.0 32.2 83.9 72.8 248.6
08/05 00:20 15 52 6.67 5.2 30 32 1026.6 0 15.4 23.1 32.4 84.5 73.6 251.4
08/05 00:10 15 52 6.67 5.2 20 28 1026.5 0 15.4 23.0 32.4 84.5 73.5 251.4
08/05 00:00 15.1 52 6.71 5.3 26 32 1026.4 0 15.5 23.1 32.5 84.7 73.9 252.8
07/05 23:50 15.2 52 6.75 5.4 28 32 1026.4 0 15.6 23.1 32.6 85.0 74.3 254.2
07/05 23:40 15.2 52 6.75 5.4 26 32 1026.3 0 15.6 23.1 32.6 85.0 74.3 254.1
07/05 23:30 15.3 51 6.66 5.2 20 28 1026.3 0 15.4 23.0 32.2 84.0 73.1 250.0
07/05 23:20 15.5 50 6.61 5.1 19 22 1026.3 0 15.3 22.8 32.0 83.3 72.3 247.2
07/05 23:10 15.9 49 6.64 5.2 22 26 1026.3 0 15.3 22.8 31.9 83.2 72.3 247.3
07/05 23:00 16.1 49 6.72 5.4 24 30 1026.3 0 15.5 22.8 32.1 83.8 73.1 250.1
07/05 22:50 16.2 48 6.62 5.2 20 22 1026.3 0 15.3 22.7 31.7 82.7 71.8 245.5
07/05 22:40 16.4 48 6.7 5.4 26 30 1026.2 0 15.4 22.7 31.9 83.3 72.6 248.3
07/05 22:30 16.6 47 6.64 5.3 28 35 1026.1 0 15.3 22.6 31.6 82.5 71.7 245.1
07/05 22:20 16.7 47 6.68 5.3 24 32 1026.1 0 15.4 22.6 31.7 82.8 72.1 246.5
07/05 22:10 16.8 47 6.72 5.4 24 30 1026.1 0 15.5 22.7 31.8 83.0 72.5 247.9
07/05 22:00 16.9 47 6.76 5.5 26 37 1025.8 0 15.5 22.7 31.9 83.3 72.8 249.2
07/05 21:50 17 46 6.66 5.3 24 30 1025.8 0 15.3 22.5 31.5 82.2 71.6 244.7
07/05 21:40 17.1 46 6.7 5.4 24 26 1025.7 0 15.4 22.5 31.6 82.5 71.9 246.0
07/05 21:30 17.3 45 6.63 5.3 24 33 1025.7 0 15.3 22.4 31.3 81.6 70.9 242.5
07/05 21:20 17.2 45 6.59 5.2 19 22 1025.6 0 15.2 22.4 31.2 81.3 70.5 241.1
07/05 21:10 17.5 44 6.56 5.1 24 26 1025.5 0 15.1 22.2 31.0 80.7 69.9 239.0
07/05 21:00 17.5 43 6.41 4.8 24 32 1025.5 0 14.8 22.0 30.4 79.3 68.2 232.8
07/05 20:50 17.4 43 6.37 4.7 20 22 1025.5 0 14.7 22.0 30.3 79.0 67.8 231.5
07/05 20:40 17.5 43 6.41 4.8 20 24 1025.4 0 14.8 22.0 30.4 79.3 68.2 232.8
07/05 20:30 17.4 43 6.37 4.7 19 22 1025.3 0 14.7 22.0 30.3 79.0 67.8 231.4
07/05 20:20 17.4 43 6.37 4.7 19 20 1025.3 0 14.7 22.0 30.3 79.0 67.8 231.4
07/05 20:10 17.2 44 6.44 4.9 19 20 1025.2 0 14.9 22.1 30.6 79.9 68.8 234.9
07/05 20:00 16.3 44 6.1 4 11 15 1025.1 0 14.2 21.8 29.8 77.5 65.5 223.4
07/05 19:50 16.8 42 6 3.8 11 13 1025 0 13.9 21.6 29.2 76.1 63.9 217.9
07/05 19:40 17.4 41 6.08 4 13 15 1025 0 14.1 21.6 29.3 76.3 64.4 219.6
07/05 19:30 17.7 39 5.88 3.6 13 20 1024.9 0 13.7 21.2 28.5 74.1 61.9 210.7
07/05 19:20 18.6 38 6.05 4 15 17 1024.9 0 14.0 21.2 28.8 74.9 63.1 215.2
07/05 19:10 18.8 37 5.96 3.8 17 20 1024.7 0 13.8 21.1 28.4 73.9 61.9 211.0
07/05 19:00 19 37 6.03 4 19 24 1024.5 0 13.9 21.1 28.6 74.3 62.5 213.3
07/05 18:50 19.1 36 5.9 3.7 22 24 1024.3 0 13.7 20.9 28.1 73.0 61.0 207.8
07/05 18:40 19.1 36 5.9 3.7 19 20 1024.1 0 13.7 20.9 28.1 73.0 61.0 207.8
07/05 18:30 19.5 35 5.87 3.6 20 28 1024.1 0 13.6 20.8 27.8 72.4 60.4 205.6
07/05 18:20 19.6 34 5.74 3.3 20 24 1024 0 13.3 20.6 27.4 71.1 58.8 200.3
07/05 18:10 19.8 34 5.81 3.5 22 28 1023.9 0 13.4 20.6 27.5 71.6 59.5 202.5
07/05 18:00 19.9 33 5.67 3.2 22 32 1023.9 0 13.2 20.4 27.0 70.2 57.8 196.8
07/05 17:50 20.1 32 5.56 2.9 22 26 1023.8 0 12.9 20.2 26.6 69.1 56.5 192.1
07/05 17:40 20.3 31 5.45 2.6 22 26 1023.7 0 12.7 20.0 26.2 67.9 55.2 187.4
07/05 17:30 20.4 30 5.31 2.3 22 32 1023.7 0 12.4 19.8 25.7 66.6 53.6 181.9
07/05 17:20 20.6 29 5.19 2 24 32 1023.7 0 12.1 19.6 25.2 65.4 52.2 177.0
07/05 17:10 20.7 29 5.22 2 26 32 1023.6 0 12.2 19.6 25.3 65.6 52.4 177.9
07/05 17:00 20.9 29 5.28 2.2 24 35 1023.6 0 12.3 19.7 25.4 66.0 52.9 179.7
07/05 16:50 21.2 28 5.19 2 20 24 1023.6 0 12.1 19.5 25.0 65.0 51.8 175.7

Last Refresh: 08-May-2026 11:03:26

Bureau of Meteorology